Time;durP1;ratioP1;P1;durP2;ratioP2;P2;SDS_P1;SDS_P2;PMS_P1;PMS_P2;Temp;Humidity;BMP_temperature;BMP_pressure;BME280_temperature;BME280_humidity;BME280_pressure;Samples;Min_cycle;Max_cycle;Signal;HPM_P1;HPM_P2
2023/01/06 00:00:07;;;;;;;5.73;3.73;;;;;;;9.20;nan;-24074.13;5012268;28;20179;-73
2023/01/06 00:02:32;;;;;;;10.50;4.90;;;;;;;9.07;nan;-24070.44;5012138;28;20176;-74
2023/01/06 00:04:58;;;;;;;8.80;4.43;;;;;;;9.52;nan;-24082.91;5012017;28;20235;-74
2023/01/06 00:07:23;;;;;;;8.97;4.60;;;;;;;9.33;nan;-24077.66;5010650;28;20271;-73
2023/01/06 00:09:48;;;;;;;9.13;4.43;;;;;;;8.96;nan;-24067.19;5011898;28;20172;-72
2023/01/06 00:12:14;;;;;;;7.30;4.70;;;;;;;8.96;nan;-24067.19;5010600;28;20196;-73
2023/01/06 00:14:41;;;;;;;7.77;3.87;;;;;;;8.23;nan;-24046.81;5012205;28;20238;-73
2023/01/06 00:17:07;;;;;;;6.90;3.87;;;;;;;9.20;nan;-24074.13;5011753;28;20238;-73
2023/01/06 00:19:33;;;;;;;6.20;3.73;;;;;;;8.81;nan;-24063.09;5012211;28;20259;-73
2023/01/06 00:21:58;;;;;;;8.87;4.60;;;;;;;8.90;nan;-24065.50;5011853;28;20164;-73
2023/01/06 00:24:23;;;;;;;8.13;4.33;;;;;;;8.96;nan;-24067.34;5015510;28;20278;-73
2023/01/06 00:26:49;;;;;;;9.03;4.30;;;;;;;8.99;nan;-24068.03;5019994;28;20187;-74
2023/01/06 00:29:14;;;;;;;8.57;4.00;;;;;;;8.60;nan;-24057.16;5012390;28;20172;-73
2023/01/06 00:31:40;;;;;;;9.90;4.83;;;;;;;8.35;nan;-24050.22;5012529;28;20179;-72
2023/01/06 00:34:05;;;;;;;8.93;4.17;;;;;;;8.96;nan;-24067.34;5011943;28;20215;-73
2023/01/06 00:36:30;;;;;;;6.67;3.87;;;;;;;8.85;nan;-24064.22;5011829;28;20241;-72
2023/01/06 00:38:56;;;;;;;6.13;4.00;;;;;;;8.70;nan;-24059.97;5011656;28;20196;-72
2023/01/06 00:44:06;;;;;;;8.47;4.70;;;;;;;8.80;nan;-24062.81;5011889;28;20226;-73
2023/01/06 00:46:33;;;;;;;7.53;3.80;;;;;;;9.07;nan;-24070.44;5012155;28;20188;-73
2023/01/06 00:49:00;;;;;;;7.73;3.63;;;;;;;8.75;nan;-24061.53;5012131;28;20176;-70
2023/01/06 00:51:26;;;;;;;7.57;3.90;;;;;;;9.04;nan;-24069.59;5015601;28;20182;-71
2023/01/06 00:53:51;;;;;;;5.73;3.60;;;;;;;8.68;nan;-24059.56;5015675;28;20262;-72
2023/01/06 00:56:17;;;;;;;5.47;3.27;;;;;;;9.00;nan;-24068.47;5018344;28;20259;-73
2023/01/06 00:58:42;;;;;;;5.63;3.53;;;;;;;8.92;nan;-24066.22;5015917;28;20265;-73
2023/01/06 01:01:09;;;;;;;9.60;4.20;;;;;;;8.92;nan;-24066.06;5016078;28;20188;-73
2023/01/06 01:03:36;;;;;;;6.80;3.70;;;;;;;8.84;nan;-24064.09;5015434;28;20200;-72
2023/01/06 01:06:04;;;;;;;6.97;3.73;;;;;;;8.49;nan;-24054.03;5015653;28;20206;-72
2023/01/06 01:08:29;;;;;;;7.10;3.87;;;;;;;8.85;nan;-24064.22;5015436;28;20176;-73
2023/01/06 01:11:01;;;;;;;6.70;4.27;;;;;;;8.89;nan;-24065.34;5015909;28;20179;-72
2023/01/06 01:13:26;;;;;;;5.10;3.47;;;;;;;8.99;nan;-24068.03;5015257;28;20478;-71
2023/01/06 01:15:52;;;;;;;4.07;3.17;;;;;;;8.70;nan;-24060.13;5015825;28;20219;-71
2023/01/06 01:18:17;;;;;;;4.90;3.20;;;;;;;8.58;nan;-24056.59;5013885;28;20588;-71
2023/01/06 01:20:45;;;;;;;6.43;3.30;;;;;;;8.91;nan;-24065.94;5015290;28;20214;-72
2023/01/06 01:23:11;;;;;;;5.27;3.80;;;;;;;8.71;nan;-24060.41;5015179;28;20266;-72
2023/01/06 01:25:36;;;;;;;6.30;3.57;;;;;;;8.99;nan;-24068.03;5015271;28;20611;-72
2023/01/06 01:28:02;;;;;;;6.80;3.73;;;;;;;9.00;nan;-24068.34;5015408;28;20237;-72
2023/01/06 01:30:27;;;;;;;5.60;3.10;;;;;;;8.85;nan;-24064.38;5015127;28;20214;-72
2023/01/06 01:32:52;;;;;;;11.55;3.28;;;;;;;9.12;nan;-24071.72;5018673;28;20241;-72
2023/01/06 01:35:18;;;;;;;5.03;2.90;;;;;;;9.37;nan;-24078.66;5015248;28;20195;-72
2023/01/06 01:37:43;;;;;;;6.03;3.15;;;;;;;9.35;nan;-24078.22;5015152;28;20231;-71
2023/01/06 01:40:09;;;;;;;3.50;2.60;;;;;;;9.40;nan;-24079.63;5015598;28;20202;-73
2023/01/06 01:42:34;;;;;;;4.70;3.13;;;;;;;9.03;nan;-24069.19;5015159;28;20191;-72
2023/01/06 01:45:06;;;;;;;5.70;3.42;;;;;;;9.63;nan;-24086.13;5015340;28;20176;-72
2023/01/06 01:47:41;;;;;;;4.00;2.97;;;;;;;9.40;nan;-24079.63;5015528;28;20652;-74
2023/01/06 01:50:12;;;;;;;7.32;3.72;;;;;;;9.70;nan;-24087.97;5014991;28;20168;-73
2023/01/06 01:52:39;;;;;;;5.68;3.60;;;;;;;9.67;nan;-24087.28;5015273;28;20180;-73
2023/01/06 01:55:06;;;;;;;6.85;3.53;;;;;;;9.82;nan;-24091.22;5015075;28;20237;-72
2023/01/06 01:57:38;;;;;;;5.00;3.28;;;;;;;9.69;nan;-24087.84;5014828;28;20219;-73
2023/01/06 02:00:07;;;;;;;3.97;2.92;;;;;;;9.86;nan;-24092.34;5014493;28;20255;-72
2023/01/06 02:02:32;;;;;;;6.20;3.58;;;;;;;10.06;nan;-24098.16;5014971;28;20167;-71
2023/01/06 02:04:59;;;;;;;4.95;3.38;;;;;;;9.98;nan;-24095.75;5014711;28;20212;-72
2023/01/06 02:07:26;;;;;;;7.78;3.88;;;;;;;10.19;nan;-24101.81;5014665;28;20188;-72
2023/01/06 02:10:03;;;;;;;5.05;2.78;;;;;;;10.41;nan;-24107.88;5014868;28;20184;-72
2023/01/06 02:12:30;;;;;;;4.10;2.83;;;;;;;10.32;nan;-24105.34;5014541;28;20543;-72
2023/01/06 02:14:56;;;;;;;6.05;3.33;;;;;;;10.35;nan;-24106.06;5014866;28;20179;-73
2023/01/06 02:17:28;;;;;;;6.00;3.33;;;;;;;10.36;nan;-24106.47;5014541;28;20204;-72
2023/01/06 02:20:26;;;;;;;4.35;3.22;;;;;;;10.42;nan;-24108.16;5014664;28;20542;-73
2023/01/06 02:23:16;;;;;;;7.25;3.58;;;;;;;10.47;nan;-24109.59;5023752;28;20626;-73
2023/01/06 02:26:09;;;;;;;6.65;3.63;;;;;;;10.46;nan;-24109.31;5014197;28;20221;-72
2023/01/06 02:28:43;;;;;;;14.10;3.40;;;;;;;10.67;nan;-24114.94;5014716;28;20180;-73
2023/01/06 02:31:42;;;;;;;6.25;3.30;;;;;;;10.69;nan;-24115.50;5014100;28;20648;-73
2023/01/06 02:34:31;;;;;;;6.03;2.95;;;;;;;10.64;nan;-24114.38;5014403;28;20168;-72
2023/01/06 02:37:02;;;;;;;4.13;3.10;;;;;;;10.68;nan;-24115.22;5014319;28;20172;-73
2023/01/06 02:39:52;;;;;;;4.22;3.03;;;;;;;10.77;nan;-24117.78;5014546;28;20180;-73
2023/01/06 02:42:40;;;;;;;4.35;2.70;;;;;;;10.79;nan;-24118.47;5013163;28;20188;-73
2023/01/06 02:45:20;;;;;;;4.70;2.97;;;;;;;10.78;nan;-24118.03;5018734;28;20183;-72
2023/01/06 02:47:57;;;;;;;5.03;2.60;;;;;;;10.38;nan;-24106.91;5013829;28;20191;-73
2023/01/06 02:50:45;;;;;;;6.43;3.40;;;;;;;10.61;nan;-24113.53;5013634;28;20242;-73
2023/01/06 02:53:10;;;;;;;3.38;2.45;;;;;;;10.84;nan;-24119.88;5014212;28;20188;-72
2023/01/06 02:55:47;;;;;;;4.82;2.88;;;;;;;10.91;nan;-24121.72;5030219;28;20615;-73
2023/01/06 02:58:24;;;;;;;4.65;2.70;;;;;;;10.93;nan;-24122.28;5014699;28;20219;-74
2023/01/06 03:01:13;;;;;;;4.80;2.85;;;;;;;11.04;nan;-24125.38;5013641;28;20179;-72
2023/01/06 03:03:43;;;;;;;5.18;3.03;;;;;;;10.68;nan;-24115.22;5013593;28;20690;-73
2023/01/06 03:06:16;;;;;;;3.22;2.58;;;;;;;11.14;nan;-24128.06;5013481;28;20534;-73
2023/01/06 03:08:44;;;;;;;6.50;2.65;;;;;;;10.73;nan;-24116.78;5013783;28;20207;-73
2023/01/06 03:11:09;;;;;;;3.17;2.30;;;;;;;11.13;nan;-24127.91;5013817;28;20259;-73
2023/01/06 03:14:05;;;;;;;3.42;2.58;;;;;;;11.13;nan;-24127.91;5012826;28;20256;-72
2023/01/06 03:16:31;;;;;;;4.22;3.17;;;;;;;11.05;nan;-24125.81;5014272;28;20184;-72
2023/01/06 03:18:57;;;;;;;4.68;3.03;;;;;;;10.79;nan;-24118.34;5011786;28;20258;-73
2023/01/06 03:21:30;;;;;;;4.05;2.83;;;;;;;11.25;nan;-24131.31;5014121;28;20238;-73
2023/01/06 03:23:56;;;;;;;3.17;2.40;;;;;;;10.90;nan;-24121.56;5012869;28;20191;-72
2023/01/06 03:26:23;;;;;;;5.63;2.95;;;;;;;11.17;nan;-24129.03;5012875;28;20216;-72
2023/01/06 03:28:49;;;;;;;4.43;2.95;;;;;;;11.09;nan;-24126.78;5044481;28;20621;-72
2023/01/06 03:31:30;;;;;;;4.82;2.60;;;;;;;11.09;nan;-24126.78;5012777;28;20172;-75
2023/01/06 03:34:06;;;;;;;3.35;2.65;;;;;;;11.16;nan;-24128.63;5013426;28;20656;-73
2023/01/06 03:36:46;;;;;;;5.68;2.35;;;;;;;10.59;nan;-24112.97;5013284;28;20258;-73
2023/01/06 03:39:24;;;;;;;4.45;2.63;;;;;;;11.01;nan;-24124.69;5028375;28;20200;-72
2023/01/06 03:45:08;;;;;;;2.95;2.22;;;;;;;10.69;nan;-24115.66;5012905;28;20225;-72
2023/01/06 03:47:54;;;;;;;5.28;2.67;;;;;;;10.59;nan;-24112.97;5012539;28;20191;-73
2023/01/06 03:50:31;;;;;;;4.47;2.40;;;;;;;10.87;nan;-24120.59;5012904;28;20258;-72
2023/01/06 03:53:11;;;;;;;4.22;2.95;;;;;;;10.76;nan;-24117.47;5012804;28;20645;-72
2023/01/06 03:55:39;;;;;;;3.78;2.83;;;;;;;10.24;nan;-24103.09;5012569;28;20168;-73
2023/01/06 03:58:08;;;;;;;6.63;3.00;;;;;;;10.75;nan;-24117.19;5014671;28;20211;-73
2023/01/06 04:00:36;;;;;;;4.90;2.90;;;;;;;10.69;nan;-24115.50;5012409;28;20172;-72
2023/01/06 04:03:06;;;;;;;5.53;2.53;;;;;;;10.32;nan;-24105.34;5012199;28;20258;-73
2023/01/06 04:05:31;;;;;;;4.82;3.67;;;;;;;10.27;nan;-24103.94;5010763;28;20651;-72
2023/01/06 04:07:57;;;;;;;6.30;3.10;;;;;;;10.56;nan;-24112.13;5012245;28;20314;-72
2023/01/06 04:10:23;;;;;;;4.68;2.92;;;;;;;10.25;nan;-24103.22;5012529;28;20179;-72
2023/01/06 04:12:48;;;;;;;3.42;2.67;;;;;;;10.19;nan;-24101.69;5012292;28;20555;-73
2023/01/06 04:15:22;;;;;;;4.13;2.20;;;;;;;10.56;nan;-24111.97;5012373;28;20229;-73
2023/01/06 04:17:48;;;;;;;4.28;2.63;;;;;;;10.10;nan;-24099.13;5012119;28;20195;-73
2023/01/06 04:20:16;;;;;;;4.53;2.85;;;;;;;10.54;nan;-24111.56;5012483;28;20296;-72
2023/01/06 04:22:42;;;;;;;4.78;2.60;;;;;;;10.48;nan;-24109.72;5012050;28;20183;-72
2023/01/06 04:25:08;;;;;;;4.10;2.45;;;;;;;10.43;nan;-24108.47;5009615;28;20187;-73
2023/01/06 04:27:33;;;;;;;4.63;2.55;;;;;;;9.92;nan;-24094.06;5012062;28;20271;-71
2023/01/06 04:29:59;;;;;;;3.47;2.45;;;;;;;10.40;nan;-24107.63;5012075;28;20671;-73
2023/01/06 04:32:24;;;;;;;4.05;2.40;;;;;;;10.32;nan;-24105.22;5012105;28;20647;-72
2023/01/06 04:34:50;;;;;;;2.70;1.98;;;;;;;10.35;nan;-24106.19;5011965;28;20187;-72
2023/01/06 04:37:16;;;;;;;1.77;1.67;;;;;;;10.35;nan;-24106.19;5010620;28;20550;-72
2023/01/06 04:39:41;;;;;;;2.97;2.17;;;;;;;10.31;nan;-24104.94;5011503;28;20670;-73
2023/01/06 04:42:07;;;;;;;3.33;2.40;;;;;;;10.42;nan;-24108.16;5011841;28;20183;-72
2023/01/06 04:44:32;;;;;;;5.25;2.38;;;;;;;10.21;nan;-24102.09;5011898;28;20528;-72
2023/01/06 04:46:58;;;;;;;3.33;2.20;;;;;;;10.70;nan;-24115.78;5011672;28;20156;-72
2023/01/06 04:49:23;;;;;;;3.72;2.42;;;;;;;10.56;nan;-24112.13;5012238;28;20259;-72
2023/01/06 04:51:49;;;;;;;2.78;2.10;;;;;;;10.63;nan;-24114.09;5012145;28;20175;-72
2023/01/06 04:54:14;;;;;;;6.72;2.08;;;;;;;10.54;nan;-24111.41;5012102;28;20176;-72
2023/01/06 04:56:39;;;;;;;3.17;2.00;;;;;;;10.70;nan;-24115.94;5011884;28;20256;-73
2023/01/06 04:59:05;;;;;;;3.83;2.30;;;;;;;10.27;nan;-24103.78;5011870;28;20642;-72
2023/01/06 05:01:30;;;;;;;2.45;1.95;;;;;;;10.59;nan;-24112.81;5010078;28;20183;-73
2023/01/06 05:03:56;;;;;;;2.55;2.00;;;;;;;10.30;nan;-24104.78;5011288;28;20262;-72
2023/01/06 05:06:21;;;;;;;3.03;2.13;;;;;;;10.23;nan;-24102.81;5011207;28;20191;-72
2023/01/06 05:08:46;;;;;;;2.13;1.80;;;;;;;10.46;nan;-24109.16;5012055;28;20685;-72
2023/01/06 05:11:18;;;;;;;3.38;2.38;;;;;;;10.50;nan;-24110.28;5016347;28;20546;-73
2023/01/06 05:13:44;;;;;;;1.77;1.67;;;;;;;10.51;nan;-24110.56;5015781;28;20658;-73
2023/01/06 05:16:13;;;;;;;3.97;2.28;;;;;;;10.06;nan;-24098.16;5015841;28;20202;-72
2023/01/06 05:18:39;;;;;;;1.67;1.58;;;;;;;10.46;nan;-24109.16;5015267;28;20199;-72
2023/01/06 05:21:04;;;;;;;5.20;2.28;;;;;;;10.41;nan;-24107.75;5016096;28;20180;-72
2023/01/06 05:23:30;;;;;;;2.22;2.00;;;;;;;9.95;nan;-24095.03;5015108;28;20195;-73
2023/01/06 05:25:56;;;;;;;2.33;2.13;;;;;;;10.43;nan;-24108.47;5024862;28;20222;-73
2023/01/06 05:28:21;;;;;;;3.25;2.17;;;;;;;10.00;nan;-24096.31;5022054;28;20176;-73
2023/01/06 05:30:47;;;;;;;3.65;2.00;;;;;;;10.39;nan;-24107.31;5014520;28;20555;-72
2023/01/06 05:33:13;;;;;;;2.42;1.95;;;;;;;10.00;nan;-24096.31;5014382;28;20194;-74
2023/01/06 05:35:38;;;;;;;2.53;2.10;;;;;;;9.79;nan;-24090.53;5017425;28;20190;-73
2023/01/06 05:38:04;;;;;;;2.53;2.05;;;;;;;10.14;nan;-24100.41;5017231;28;20204;-73
2023/01/06 05:40:29;;;;;;;3.20;2.17;;;;;;;10.18;nan;-24101.41;5019189;28;20175;-74
2023/01/06 05:42:56;;;;;;;1.83;1.73;;;;;;;10.10;nan;-24099.28;5018640;28;20187;-72
2023/01/06 05:45:22;;;;;;;2.55;2.20;;;;;;;10.07;nan;-24098.28;5018944;28;20185;-72
2023/01/06 05:47:48;;;;;;;2.95;2.17;;;;;;;10.05;nan;-24097.72;5017292;28;20180;-72
2023/01/06 05:50:13;;;;;;;2.70;2.20;;;;;;;9.79;nan;-24090.53;5017508;28;20712;-74
2023/01/06 05:52:39;;;;;;;2.47;1.90;;;;;;;10.15;nan;-24100.53;5018427;28;20635;-73
2023/01/06 05:55:05;;;;;;;3.13;2.08;;;;;;;10.20;nan;-24101.97;5018160;28;20191;-73
2023/01/06 05:57:35;;;;;;;4.10;1.90;;;;;;;10.12;nan;-24099.84;5017736;28;20200;-72
2023/01/06 06:00:02;;;;;;;3.75;2.20;;;;;;;9.79;nan;-24090.38;5019564;28;20239;-73
2023/01/06 06:02:28;;;;;;;4.28;1.80;;;;;;;9.82;nan;-24091.38;5018371;28;20279;-71
2023/01/06 06:04:53;;;;;;;2.42;1.98;;;;;;;10.13;nan;-24099.97;5018670;28;20228;-71
2023/01/06 06:07:19;;;;;;;2.20;1.98;;;;;;;9.79;nan;-24090.53;5019654;28;20180;-71
2023/01/06 06:09:44;;;;;;;4.50;2.20;;;;;;;9.82;nan;-24091.22;5017487;28;20172;-73
2023/01/06 06:12:11;;;;;;;3.22;1.90;;;;;;;10.49;nan;-24110.16;5018640;28;20215;-71
2023/01/06 06:14:36;;;;;;;1.73;1.63;;;;;;;10.68;nan;-24115.22;5018737;28;20177;-73
2023/01/06 06:17:02;;;;;;;1.88;1.67;;;;;;;10.37;nan;-24106.75;5017554;28;20179;-72
2023/01/06 06:19:27;;;;;;;4.85;2.13;;;;;;;10.32;nan;-24105.22;5018662;28;20211;-71
2023/01/06 06:21:52;;;;;;;1.60;1.50;;;;;;;10.91;nan;-24121.72;5015800;28;20690;-70
2023/01/06 06:24:18;;;;;;;2.30;1.75;;;;;;;10.93;nan;-24122.28;5018622;28;20171;-71
2023/01/06 06:26:43;;;;;;;2.30;2.10;;;;;;;10.91;nan;-24121.84;5016479;28;20636;-70
2023/01/06 06:29:09;;;;;;;2.13;1.70;;;;;;;11.03;nan;-24125.25;5018044;28;20202;-70
2023/01/06 06:31:35;;;;;;;3.58;2.28;;;;;;;10.99;nan;-24124.13;5047113;28;20248;-70
2023/01/06 06:34:02;;;;;;;5.57;2.65;;;;;;;11.13;nan;-24127.91;5016319;28;20176;-71
2023/01/06 06:36:28;;;;;;;2.70;1.80;;;;;;;11.16;nan;-24128.63;5017418;28;20182;-73
2023/01/06 06:38:54;;;;;;;2.13;1.77;;;;;;;11.29;nan;-24132.44;5018042;28;20235;-70
2023/01/06 06:41:21;;;;;;;5.07;2.17;;;;;;;11.28;nan;-24132.16;5017465;28;20620;-71
2023/01/06 06:43:48;;;;;;;3.67;2.10;;;;;;;11.21;nan;-24130.03;5016947;28;20211;-70
2023/01/06 06:46:13;;;;;;;3.03;1.88;;;;;;;10.94;nan;-24122.56;5017760;28;20210;-71
2023/01/06 06:48:39;;;;;;;3.05;2.20;;;;;;;11.36;nan;-24134.25;5017000;28;20643;-71
2023/01/06 06:51:07;;;;;;;2.20;2.00;;;;;;;11.44;nan;-24136.66;5017655;28;20719;-73
2023/01/06 06:53:34;;;;;;;9.85;2.20;;;;;;;11.11;nan;-24127.34;5015927;28;20283;-71
2023/01/06 06:56:00;;;;;;;2.70;1.90;;;;;;;11.32;nan;-24133.28;5018479;28;20171;-72
2023/01/06 06:58:26;;;;;;;2.15;1.70;;;;;;;11.50;nan;-24138.22;5016751;28;20202;-71
2023/01/06 07:00:52;;;;;;;2.60;1.90;;;;;;;11.25;nan;-24131.16;5016254;28;20179;-71
2023/01/06 07:03:18;;;;;;;1.80;1.50;;;;;;;11.48;nan;-24137.78;5017691;28;20185;-71
2023/01/06 07:05:46;;;;;;;1.90;1.80;;;;;;;11.15;nan;-24128.47;5017166;28;20227;-71
2023/01/06 07:08:12;;;;;;;3.25;1.52;;;;;;;11.40;nan;-24135.53;5016157;28;20179;-70
2023/01/06 07:10:38;;;;;;;2.58;2.08;;;;;;;11.22;nan;-24130.47;5017529;28;20226;-72
2023/01/06 07:13:04;;;;;;;2.00;1.80;;;;;;;11.35;nan;-24133.97;5017136;28;20208;-72
2023/01/06 07:15:29;;;;;;;2.17;1.70;;;;;;;11.44;nan;-24136.66;5015833;28;20270;-73
2023/01/06 07:17:58;;;;;;;4.13;2.17;;;;;;;11.44;nan;-24136.66;5017664;28;20207;-72
2023/01/06 07:20:24;;;;;;;2.03;1.77;;;;;;;11.23;nan;-24130.59;5017214;28;20622;-72
2023/01/06 07:22:49;;;;;;;2.42;1.85;;;;;;;11.30;nan;-24132.72;5016725;28;20218;-72
2023/01/06 07:25:15;;;;;;;1.83;1.67;;;;;;;11.69;nan;-24143.41;5017205;28;20188;-72
2023/01/06 07:27:40;;;;;;;3.13;1.70;;;;;;;11.45;nan;-24136.94;5016043;28;20194;-71
2023/01/06 07:30:06;;;;;;;1.75;1.63;;;;;;;11.49;nan;-24137.94;5017339;28;20722;-71
2023/01/06 07:32:32;;;;;;;1.95;1.75;;;;;;;11.62;nan;-24141.59;5017075;28;20183;-71
2023/01/06 07:34:57;;;;;;;2.83;2.03;;;;;;;11.90;nan;-24149.47;5017349;28;20238;-71
2023/01/06 07:37:22;;;;;;;2.28;2.00;;;;;;;11.51;nan;-24138.63;5016630;28;20658;-71
2023/01/06 07:39:48;;;;;;;2.08;1.83;;;;;;;11.95;nan;-24150.88;5016113;28;20271;-72
2023/01/06 07:42:13;;;;;;;2.42;1.90;;;;;;;11.82;nan;-24147.09;5016503;28;20226;-71
2023/01/06 07:44:39;;;;;;;3.22;2.30;;;;;;;11.61;nan;-24141.31;5015294;28;20967;-71
2023/01/06 07:47:05;;;;;;;2.55;2.20;;;;;;;11.88;nan;-24148.78;5016572;28;20545;-71
2023/01/06 07:49:31;;;;;;;2.38;1.75;;;;;;;12.00;nan;-24152.00;5017112;28;20596;-71
2023/01/06 07:51:56;;;;;;;3.20;1.90;;;;;;;11.81;nan;-24146.81;5018288;28;20212;-71
2023/01/06 07:54:22;;;;;;;2.30;1.52;;;;;;;12.34;nan;-24161.59;5029162;28;20180;-71
2023/01/06 07:56:47;;;;;;;2.53;1.90;;;;;;;12.04;nan;-24153.13;5016141;28;20611;-71
2023/01/06 07:59:12;;;;;;;2.13;1.92;;;;;;;12.24;nan;-24158.78;5014529;28;21025;-71
2023/01/06 08:01:38;;;;;;;2.05;1.83;;;;;;;12.21;nan;-24158.06;5016108;28;20183;-71
2023/01/06 08:04:03;;;;;;;6.78;2.08;;;;;;;12.59;nan;-24168.47;5045689;28;20652;-72
2023/01/06 08:06:29;;;;;;;2.30;1.90;;;;;;;12.46;nan;-24164.81;5016072;28;20821;-72
2023/01/06 08:08:54;;;;;;;1.70;1.52;;;;;;;12.62;nan;-24169.31;5016718;28;20656;-72
2023/01/06 08:11:20;;;;;;;2.20;1.88;;;;;;;12.27;nan;-24159.75;5016321;28;20184;-72
2023/01/06 08:13:46;;;;;;;2.63;1.83;;;;;;;12.77;nan;-24173.69;5016367;28;20171;-71
2023/01/06 08:16:12;;;;;;;3.83;1.70;;;;;;;12.74;nan;-24172.69;5015206;28;20175;-72
2023/01/06 08:18:38;;;;;;;2.67;1.65;;;;;;;13.11;nan;-24182.97;5015901;28;20277;-72
2023/01/06 08:21:09;;;;;;;2.28;1.50;;;;;;;12.79;nan;-24174.09;5016613;28;20372;-72
2023/01/06 08:23:35;;;;;;;3.50;1.80;;;;;;;13.11;nan;-24182.97;5014378;28;20712;-71
2023/01/06 08:26:07;;;;;;;5.28;1.70;;;;;;;12.86;nan;-24176.06;5015719;28;20591;-72
2023/01/06 08:28:33;;;;;;;3.90;1.83;;;;;;;13.20;nan;-24185.63;5017147;28;20184;-72
2023/01/06 08:30:59;;;;;;;2.45;1.85;;;;;;;13.19;nan;-24185.34;5016005;28;20249;-73
2023/01/06 08:33:25;;;;;;;4.22;1.70;;;;;;;13.24;nan;-24186.75;5015124;28;20203;-72
2023/01/06 08:36:02;;;;;;;1.60;1.50;;;;;;;12.99;nan;-24179.59;5015794;28;20204;-72
2023/01/06 08:38:29;;;;;;;2.47;1.77;;;;;;;13.29;nan;-24188.03;5015623;28;20202;-72
2023/01/06 08:40:56;;;;;;;2.65;1.45;;;;;;;13.05;nan;-24181.41;5016623;28;20230;-72
2023/01/06 08:43:23;;;;;;;5.65;1.63;;;;;;;13.22;nan;-24186.06;5015378;28;20187;-73
2023/01/06 08:45:49;;;;;;;2.13;1.83;;;;;;;13.32;nan;-24188.88;5015882;28;20529;-72
2023/01/06 08:48:14;;;;;;;2.30;1.50;;;;;;;13.44;nan;-24192.25;5016231;28;20207;-72
2023/01/06 08:50:40;;;;;;;1.40;1.30;;;;;;;13.24;nan;-24186.75;5014849;28;20242;-71
2023/01/06 08:53:07;;;;;;;2.83;1.67;;;;;;;13.16;nan;-24184.50;5015620;28;20249;-71
2023/01/06 08:55:32;;;;;;;1.77;1.48;;;;;;;13.24;nan;-24186.63;5015680;28;20192;-71
2023/01/06 08:57:58;;;;;;;1.50;1.40;;;;;;;13.69;nan;-24199.25;5015186;28;20199;-72
2023/01/06 09:00:23;;;;;;;2.92;1.65;;;;;;;13.74;nan;-24200.53;5016065;28;20643;-71
2023/01/06 09:02:49;;;;;;;1.95;1.63;;;;;;;13.43;nan;-24191.94;5015578;28;20643;-71
2023/01/06 09:05:15;;;;;;;2.08;1.60;;;;;;;13.51;nan;-24194.06;5016430;28;20310;-71
2023/01/06 09:07:40;;;;;;;1.80;1.45;;;;;;;13.53;nan;-24194.63;5015320;28;20184;-72
2023/01/06 09:10:06;;;;;;;4.97;1.95;;;;;;;12.71;nan;-24171.84;5030479;28;20225;-71
2023/01/06 09:12:32;;;;;;;1.58;1.45;;;;;;;13.46;nan;-24192.78;5020332;28;20191;-72
2023/01/06 09:14:58;;;;;;;1.60;1.40;;;;;;;13.49;nan;-24193.50;5019937;28;20179;-71
2023/01/06 09:17:23;;;;;;;3.10;1.55;;;;;;;13.65;nan;-24198.00;5019544;28;20188;-71
2023/01/06 09:19:49;;;;;;;2.35;1.65;;;;;;;13.94;nan;-24206.13;5019790;28;22039;-72
2023/01/06 09:22:14;;;;;;;3.00;1.80;;;;;;;13.61;nan;-24196.88;5020531;28;20176;-71
2023/01/06 09:24:39;;;;;;;1.40;1.30;;;;;;;14.06;nan;-24209.34;5019111;28;20188;-72
2023/01/06 09:27:05;;;;;;;1.88;1.40;;;;;;;13.71;nan;-24199.69;5019631;28;20184;-72
2023/01/06 09:29:31;;;;;;;2.45;1.50;;;;;;;14.12;nan;-24211.19;5019881;28;20199;-71
2023/01/06 09:31:56;;;;;;;1.73;1.50;;;;;;;13.87;nan;-24204.03;5018322;28;20227;-72
2023/01/06 09:34:22;;;;;;;2.00;1.45;;;;;;;13.87;nan;-24204.03;5019553;28;20219;-72
2023/01/06 09:36:47;;;;;;;1.67;1.58;;;;;;;13.83;nan;-24202.91;5019326;28;20195;-71
2023/01/06 09:39:12;;;;;;;1.73;1.30;;;;;;;14.07;nan;-24209.78;5019999;28;20620;-72
2023/01/06 09:41:38;;;;;;;2.63;2.17;;;;;;;14.27;nan;-24215.25;5018397;28;20184;-71
2023/01/06 09:44:25;;;;;;;1.88;1.27;;;;;;;14.43;nan;-24219.59;5018851;28;20232;-71
2023/01/06 09:46:51;;;;;;;4.70;1.42;;;;;;;14.15;nan;-24212.03;5016862;28;20279;-71
2023/01/06 09:49:29;;;;;;;1.65;1.38;;;;;;;13.64;nan;-24197.72;5019992;28;20176;-71
2023/01/06 09:51:58;;;;;;;1.70;1.60;;;;;;;14.44;nan;-24219.88;5017822;28;20269;-71
2023/01/06 09:54:30;;;;;;;6.40;1.55;;;;;;;14.55;nan;-24222.97;5016631;28;20706;-71
2023/01/06 09:57:20;;;;;;;1.85;1.40;;;;;;;14.57;nan;-24223.53;5018806;28;20597;-71
2023/01/06 10:00:02;;;;;;;2.33;1.50;;;;;;;14.65;nan;-24225.63;5017643;28;20207;-71
2023/01/06 10:02:38;;;;;;;1.85;1.55;;;;;;;14.48;nan;-24221.00;5017901;28;20196;-72
2023/01/06 10:05:53;;;;;;;1.80;1.40;;;;;;;14.60;nan;-24224.38;5018389;28;20222;-71
2023/01/06 10:08:58;;;;;;;1.75;1.50;;;;;;;14.00;nan;-24207.81;5008767;28;20214;-73
2023/01/06 10:11:32;;;;;;;8.18;1.80;;;;;;;14.25;nan;-24214.69;5015755;28;20258;-72
2023/01/06 10:14:20;;;;;;;1.85;1.60;;;;;;;14.59;nan;-24224.22;5018445;28;20183;-71
2023/01/06 10:16:57;;;;;;;2.20;1.60;;;;;;;14.69;nan;-24226.75;5018955;28;20180;-71
2023/01/06 10:19:47;;;;;;;1.90;1.20;;;;;;;14.66;nan;-24225.91;5017162;28;20203;-71
2023/01/06 10:22:38;;;;;;;3.90;1.55;;;;;;;14.34;nan;-24217.22;5021760;28;20180;-71
2023/01/06 10:25:36;;;;;;;2.30;1.42;;;;;;;14.61;nan;-24224.66;5024694;28;20179;-72
2023/01/06 10:28:37;;;;;;;1.92;1.63;;;;;;;14.50;nan;-24221.56;5011250;28;20640;-72
2023/01/06 10:31:08;;;;;;;1.50;1.27;;;;;;;14.69;nan;-24226.91;5016151;28;20201;-71
2023/01/06 10:33:50;;;;;;;1.60;1.40;;;;;;;14.83;nan;-24230.69;5016475;28;20231;-72
2023/01/06 10:36:25;;;;;;;1.30;1.20;;;;;;;14.73;nan;-24228.03;5016777;28;20671;-72
2023/01/06 10:38:53;;;;;;;1.27;1.17;;;;;;;15.02;nan;-24236.16;5016537;28;20202;-72
2023/01/06 10:41:44;;;;;;;1.60;1.50;;;;;;;14.99;nan;-24235.31;5016953;28;20180;-72
2023/01/06 10:44:11;;;;;;;1.42;1.20;;;;;;;15.07;nan;-24237.28;5016449;28;20637;-73
2023/01/06 10:46:37;;;;;;;1.63;1.40;;;;;;;14.98;nan;-24234.88;5018474;28;20532;-72
2023/01/06 10:49:06;;;;;;;1.35;1.25;;;;;;;14.75;nan;-24228.44;5016592;28;20176;-72
2023/01/06 10:51:36;;;;;;;1.38;1.27;;;;;;;14.74;nan;-24228.31;5016275;28;20706;-72
2023/01/06 10:54:09;;;;;;;7.82;1.65;;;;;;;14.86;nan;-24231.66;5016979;28;20248;-73
2023/01/06 10:56:36;;;;;;;1.60;1.50;;;;;;;14.95;nan;-24234.19;5012869;28;20250;-73
2023/01/06 10:59:07;;;;;;;1.42;1.30;;;;;;;15.01;nan;-24235.88;5012957;28;20210;-73
2023/01/06 11:01:33;;;;;;;1.75;1.30;;;;;;;14.85;nan;-24231.38;5012958;28;20264;-72
2023/01/06 11:04:08;;;;;;;1.40;1.30;;;;;;;15.07;nan;-24237.41;5012518;28;20235;-72
2023/01/06 11:06:35;;;;;;;1.58;1.45;;;;;;;14.88;nan;-24232.09;5011334;28;20171;-70
2023/01/06 11:09:21;;;;;;;1.42;1.30;;;;;;;14.66;nan;-24225.91;5012739;28;20175;-71
2023/01/06 11:11:48;;;;;;;1.58;1.40;;;;;;;14.92;nan;-24233.22;5012321;28;20183;-71
2023/01/06 11:14:18;;;;;;;1.38;1.27;;;;;;;14.92;nan;-24233.22;5012365;28;20191;-70
2023/01/06 11:17:02;;;;;;;1.98;1.30;;;;;;;14.92;nan;-24233.34;5012329;28;20283;-71
2023/01/06 11:19:41;;;;;;;2.13;1.38;;;;;;;14.78;nan;-24229.41;5012162;28;20204;-71
2023/01/06 11:22:28;;;;;;;1.90;1.73;;;;;;;15.12;nan;-24238.81;5012305;28;20294;-71
2023/01/06 11:24:54;;;;;;;1.83;1.40;;;;;;;14.95;nan;-24234.19;5011653;28;20226;-72
2023/01/06 11:27:19;;;;;;;1.60;1.40;;;;;;;15.06;nan;-24237.00;5010073;28;20179;-71
2023/01/06 11:29:45;;;;;;;1.60;1.50;;;;;;;15.04;nan;-24236.72;5011688;28;20160;-71
2023/01/06 11:32:24;;;;;;;1.50;1.40;;;;;;;15.16;nan;-24239.78;5011935;28;20199;-71
2023/01/06 11:35:01;;;;;;;1.80;1.50;;;;;;;15.30;nan;-24243.72;5011510;28;20213;-71
2023/01/06 11:37:32;;;;;;;1.42;1.33;;;;;;;15.23;nan;-24241.88;5011488;28;20623;-71
2023/01/06 11:39:57;;;;;;;2.42;1.42;;;;;;;15.09;nan;-24237.97;5011368;28;20192;-71
2023/01/06 11:42:24;;;;;;;2.83;1.77;;;;;;;15.06;nan;-24237.00;5011271;28;20314;-71
2023/01/06 11:44:49;;;;;;;1.67;1.58;;;;;;;14.84;nan;-24231.09;5011312;28;20171;-71
2023/01/06 11:47:16;;;;;;;1.40;1.30;;;;;;;15.32;nan;-24244.41;5010597;28;20172;-71
2023/01/06 11:49:48;;;;;;;1.42;1.25;;;;;;;15.36;nan;-24245.38;5011123;28;20199;-70
2023/01/06 11:52:35;;;;;;;1.30;1.20;;;;;;;15.43;nan;-24247.50;5011563;28;20646;-71
2023/01/06 11:55:03;;;;;;;1.88;1.42;;;;;;;15.27;nan;-24243.00;5011460;28;20175;-71
2023/01/06 11:57:50;;;;;;;1.33;1.23;;;;;;;15.40;nan;-24246.66;5011117;28;20563;-72
2023/01/06 12:00:46;;;;;;;1.52;1.40;;;;;;;15.49;nan;-24249.03;5011977;28;20172;-72